Santorini Island, Greece

11:53 AM EET on January 31, 2015 (GMT +0200)
Santorini | Change Station
CLOSE
Current Station
Airport
Location: Santorini Island,
Elevation: 125 ft
Nearby Weather Stations
Active Advisory: Wind

Elev 125 ft 36.40 °N, 25.48 °E | Updated 33 minutes ago

Mostly Cloudy
Mostly Cloudy
63 °F
Feels Like 63 °F
N
18
Wind Variable Wind from SSE
Gusts 41 mph

Today
High -- | Low -- °F
--% Chance of Precip.
Yesterday
High -- | Low -- °F
Precip. -- in
7:20 AM 5:42 PM
Waxing Gibbous, 88% visible
Pressure 29.65 in
Visibility 6.2 miles
Clouds Few 3000 ft
Mostly Cloudy 12000 ft
Dew Point 48 °F
Humidity 59%
Rainfall 0.00 in
Snow Depth Not available.
UV 2 out of 12
Pollen Not available.
Air Quality Not available.
Flu Activity Not available.
METAR LGSR 310920Z 16016G36KT 9999 FEW030 BKN120 17/09 Q1004

More Conditions Fewer Conditions

Pressure 29.65 in
Visibility 6.2 miles
Clouds Few 3000 ft
Mostly Cloudy 12000 ft
Dew Point 48 °F
Humidity 59%
Rainfall 0.00 in
Snow Depth Not available.
UV 2 out of 12
Pollen Not available.
Air Quality Not available.
Flu Activity Not available.
METAR LGSR 310920Z 16016G36KT 9999 FEW030 BKN120 17/09 Q1004

More Conditions Fewer Conditions

10-Day Weather Forecast

Almanac

Astronomy

Jan. 31, 2015 Rise Set
Actual Time
Civil Twilight
Nautical Twilight
Astronomical Twilight
Moon
Length of Visible Light
Length of Day
Tomorrow will be .
, % of the Moon is Illuminated

Today's Extremes

Country Highs Country Lows

Community

WunderPhotos

Upload Photos

1,792,021 photos uploaded!

WunderBlogs® & News

Nearby

Air Quality

  Air Quality AQ Index Pollutant
Not available.

Snow Depth

Station Depth Elevation

Earthquake Activity

City Distance Mag. Time & Date
Minimum magnitude displayed is 2.5.

Coastal Water Temperatures

Place Temperature

Nearby Weather Stations